Time;durP1;ratioP1;P1;durP2;ratioP2;P2;SDS_P1;SDS_P2;PMS_P1;PMS_P2;Temp;Humidity;BMP_temperature;BMP_pressure;BME280_temperature;BME280_humidity;BME280_pressure;Samples;Min_cycle;Max_cycle;Signal;HPM_P1;HPM_P2
2022/06/29 00:00:33;;;;;;;;;;;;;;;17.25;80.41;96382.44;5093296;28;19978;-73
2022/06/29 00:02:59;;;;;;;;;;;;;;;17.25;79.97;96385.09;5092294;28;19965;-73
2022/06/29 00:05:26;;;;;;;;;;;;;;;17.23;80.18;96375.81;5093227;28;19965;-73
2022/06/29 00:07:52;;;;;;;;;;;;;;;17.21;80.25;96367.31;5094112;28;19973;-73
2022/06/29 00:10:18;;;;;;;;;;;;;;;17.19;80.06;96362.28;5093332;28;19957;-73
2022/06/29 00:12:45;;;;;;;;;;;;;;;17.18;80.14;96362.56;5096269;28;19973;-73
2022/06/29 00:15:16;;;;;;;;;;;;;;;17.18;80.20;96367.84;5097305;28;19992;-73
2022/06/29 00:17:42;;;;;;;;;;;;;;;17.15;80.46;96355.91;5082258;28;19957;-73
2022/06/29 00:20:12;;;;;;;;;;;;;;;17.13;80.55;96359.88;5097188;28;20465;-73
2022/06/29 00:22:39;;;;;;;;;;;;;;;17.12;80.67;96360.94;5097157;28;20351;-73
2022/06/29 00:25:06;;;;;;;;;;;;;;;17.10;80.53;96360.41;5097383;28;19958;-73
2022/06/29 00:27:32;;;;;;;;;;;;;;;17.09;80.71;96366.75;5097175;28;19968;-73
2022/06/29 00:29:58;;;;;;;;;;;;;;;17.07;80.79;96352.97;5097041;28;19983;-73
2022/06/29 00:32:24;;;;;;;;;;;;;;;17.05;81.00;96355.91;5096933;28;19994;-73
2022/06/29 00:34:50;;;;;;;;;;;;;;;17.02;81.78;96359.84;5097028;28;19983;-73
2022/06/29 00:37:16;;;;;;;;;;;;;;;17.01;81.20;96358.28;5097306;28;20365;-73
2022/06/29 00:39:42;;;;;;;;;;;;;;;16.99;81.92;96360.38;5097024;28;19987;-73
2022/06/29 00:42:08;;;;;;;;;;;;;;;16.97;81.10;96343.97;5096681;28;20066;-73
2022/06/29 00:44:34;;;;;;;;;;;;;;;16.96;81.68;96355.59;5096590;28;20010;-73
2022/06/29 00:47:01;;;;;;;;;;;;;;;16.95;81.50;96351.38;5096446;28;20045;-73
2022/06/29 00:49:28;;;;;;;;;;;;;;;16.93;81.89;96350.84;5096515;28;19972;-73
2022/06/29 00:52:01;;;;;;;;;;;;;;;16.90;81.96;96348.69;5096861;28;20411;-73
2022/06/29 00:54:29;;;;;;;;;;;;;;;16.88;81.74;96339.41;5096795;28;19957;-73
2022/06/29 00:56:56;;;;;;;;;;;;;;;16.82;82.42;96334.13;5096416;28;19963;-73
2022/06/29 00:59:25;;;;;;;;;;;;;;;16.79;82.36;96333.81;5096250;28;19969;-73
2022/06/29 01:01:51;;;;;;;;;;;;;;;16.79;82.21;96339.09;5096158;28;19958;-73
2022/06/29 01:04:17;;;;;;;;;;;;;;;16.76;82.63;96332.47;5096925;28;20014;-73
2022/06/29 01:06:44;;;;;;;;;;;;;;;16.75;82.28;96328.22;5096083;28;20018;-74
2022/06/29 01:09:10;;;;;;;;;;;;;;;16.75;82.52;96332.72;5096317;28;20319;-73
2022/06/29 01:11:36;;;;;;;;;;;;;;;16.73;82.53;96343.56;5096392;28;19958;-73
2022/06/29 01:14:02;;;;;;;;;;;;;;;16.71;82.47;96345.69;5096173;28;20003;-73
2022/06/29 01:16:28;;;;;;;;;;;;;;;16.70;82.88;96348.59;5095845;28;20453;-73
2022/06/29 01:18:54;;;;;;;;;;;;;;;16.67;82.80;96355.19;5095587;28;20355;-73
2022/06/29 01:21:20;;;;;;;;;;;;;;;16.67;83.00;96357.06;5095047;28;19971;-73
2022/06/29 01:23:46;;;;;;;;;;;;;;;16.66;83.45;96350.19;5095404;28;20329;-73
2022/06/29 01:26:13;;;;;;;;;;;;;;;16.64;82.83;96345.94;5095926;28;19968;-73
2022/06/29 01:28:39;;;;;;;;;;;;;;;16.63;83.10;96347.00;5095924;28;19959;-73
2022/06/29 01:31:11;;;;;;;;;;;;;;;16.62;83.10;96348.03;5096256;28;20331;-73
2022/06/29 01:33:37;;;;;;;;;;;;;;;16.61;82.96;96361.56;5095628;28;19961;-73
2022/06/29 01:36:03;;;;;;;;;;;;;;;16.61;82.84;96359.69;5095881;28;20018;-73
2022/06/29 01:38:29;;;;;;;;;;;;;;;16.59;82.94;96364.44;5096023;28;20008;-73
2022/06/29 01:40:55;;;;;;;;;;;;;;;16.57;83.01;96361.25;5095564;28;20043;-73
2022/06/29 01:43:21;;;;;;;;;;;;;;;16.55;82.95;96360.72;5095433;28;20096;-73
2022/06/29 01:45:46;;;;;;;;;;;;;;;16.53;83.60;96359.41;5095722;28;20018;-73
2022/06/29 01:48:12;;;;;;;;;;;;;;;16.49;83.34;96351.16;5095370;28;19965;-73
2022/06/29 01:50:38;;;;;;;;;;;;;;;16.49;83.41;96363.59;5095474;28;19967;-73
2022/06/29 01:53:04;;;;;;;;;;;;;;;16.47;83.54;96357.78;5095777;28;20012;-73
2022/06/29 01:55:30;;;;;;;;;;;;;;;16.44;83.33;96359.06;5095403;28;20375;-73
2022/06/29 01:57:56;;;;;;;;;;;;;;;16.41;83.18;96349.78;5095350;28;20490;-73
2022/06/29 02:00:21;;;;;;;;;;;;;;;16.39;83.42;96349.25;5095444;28;19977;-73
2022/06/29 02:02:47;;;;;;;;;;;;;;;16.38;83.13;96354.81;5095203;28;20013;-73
2022/06/29 02:05:14;;;;;;;;;;;;;;;16.36;83.49;96349.78;5095111;28;20020;-73
2022/06/29 02:07:40;;;;;;;;;;;;;;;16.35;83.57;96350.81;5095508;28;19965;-73
2022/06/29 02:10:06;;;;;;;;;;;;;;;16.34;83.90;96340.50;5095177;28;19961;-74
2022/06/29 02:12:32;;;;;;;;;;;;;;;16.32;84.20;96339.97;5095020;28;19981;-73
2022/06/29 02:14:58;;;;;;;;;;;;;;;16.31;83.98;96347.09;5094751;28;20434;-73
2022/06/29 02:17:24;;;;;;;;;;;;;;;16.30;84.41;96339.44;5094831;28;20035;-73
2022/06/29 02:19:50;;;;;;;;;;;;;;;16.28;85.02;96336.25;5095097;28;20049;-73
2022/06/29 02:22:16;;;;;;;;;;;;;;;16.26;84.91;96331.19;5094838;28;19966;-73
2022/06/29 02:24:42;;;;;;;;;;;;;;;16.22;84.74;96332.75;5094958;28;19966;-73
2022/06/29 02:27:07;;;;;;;;;;;;;;;16.20;84.90;96330.38;5094626;28;19983;-73
2022/06/29 02:29:33;;;;;;;;;;;;;;;16.18;84.96;96327.19;5094746;28;19996;-73
2022/06/29 02:34:44;;;;;;;;;;;;;;;16.13;85.27;96327.16;5094002;28;19966;-73
2022/06/29 02:37:13;;;;;;;;;;;;;;;16.12;85.52;96330.84;5094405;28;19965;-73
2022/06/29 02:39:39;;;;;;;;;;;;;;;16.09;85.51;96326.06;5094384;28;19978;-73
2022/06/29 02:42:05;;;;;;;;;;;;;;;16.08;85.57;96321.81;5094524;28;19954;-73
2022/06/29 02:44:31;;;;;;;;;;;;;;;16.07;85.89;96324.75;5094431;28;19977;-73
2022/06/29 02:46:57;;;;;;;;;;;;;;;16.05;85.66;96318.91;5094417;28;19971;-73
2022/06/29 02:49:23;;;;;;;;;;;;;;;16.06;85.56;96331.06;5094293;28;19968;-73
2022/06/29 02:51:49;;;;;;;;;;;;;;;16.05;85.64;96321.56;5094467;28;20035;-73
2022/06/29 02:54:15;;;;;;;;;;;;;;;16.03;85.28;96314.66;5094317;28;19970;-73
2022/06/29 02:56:41;;;;;;;;;;;;;;;16.02;85.04;96307.78;5094176;28;20378;-73
2022/06/29 02:59:07;;;;;;;;;;;;;;;16.01;85.22;96310.69;5094233;28;20359;-73
2022/06/29 03:01:32;;;;;;;;;;;;;;;16.00;85.86;96311.72;5093987;28;20410;-73
2022/06/29 03:03:58;;;;;;;;;;;;;;;15.98;86.11;96312.00;5094099;28;20009;-73
2022/06/29 03:06:24;;;;;;;;;;;;;;;15.96;86.07;96311.44;5093979;28;20053;-73
2022/06/29 03:08:50;;;;;;;;;;;;;;;15.94;85.76;96304.84;5093951;28;20370;-73
2022/06/29 03:11:16;;;;;;;;;;;;;;;15.91;86.01;96306.13;5093879;28;19962;-73
2022/06/29 03:13:42;;;;;;;;;;;;;;;15.90;85.67;96306.41;5093694;28;20058;-73
2022/06/29 03:16:08;;;;;;;;;;;;;;;15.87;85.67;96302.38;5093999;28;19990;-73
2022/06/29 03:18:33;;;;;;;;;;;;;;;15.86;85.39;96305.31;5094002;28;19977;-73
2022/06/29 03:20:59;;;;;;;;;;;;;;;15.82;86.11;96303.16;5093942;28;19985;-73
2022/06/29 03:23:25;;;;;;;;;;;;;;;15.79;85.98;96306.31;5093958;28;20299;-73
2022/06/29 03:25:51;;;;;;;;;;;;;;;15.78;86.15;96299.44;5092673;28;20380;-73
2022/06/29 03:28:17;;;;;;;;;;;;;;;15.77;86.02;96304.97;5093856;28;19967;-73
2022/06/29 03:30:48;;;;;;;;;;;;;;;15.76;86.13;96306.03;5094121;28;20432;-73
2022/06/29 03:33:14;;;;;;;;;;;;;;;15.74;85.44;96308.13;5093657;28;20023;-73
2022/06/29 03:35:40;;;;;;;;;;;;;;;15.72;86.07;96303.09;5092410;28;19955;-73
2022/06/29 03:38:06;;;;;;;;;;;;;;;15.72;86.32;96311.00;5092802;28;20046;-73
2022/06/29 03:40:31;;;;;;;;;;;;;;;15.71;86.13;96316.53;5093765;28;19968;-73
2022/06/29 03:42:57;;;;;;;;;;;;;;;15.70;86.34;96313.09;5093598;28;19963;-73
2022/06/29 03:45:23;;;;;;;;;;;;;;;15.68;86.45;96307.25;5093737;28;20032;-73
2022/06/29 03:47:49;;;;;;;;;;;;;;;15.68;86.15;96306.47;5096963;28;19996;-73
2022/06/29 03:50:16;;;;;;;;;;;;;;;15.67;86.12;96310.97;5097956;28;19982;-73
2022/06/29 03:52:42;;;;;;;;;;;;;;;15.68;86.46;96319.69;5098027;28;19960;-73
2022/06/29 03:55:08;;;;;;;;;;;;;;;15.66;87.02;96311.22;5097881;28;20013;-73
2022/06/29 03:57:34;;;;;;;;;;;;;;;15.63;86.98;96310.66;5097752;28;19961;-73
2022/06/29 04:00:00;;;;;;;;;;;;;;;15.64;86.66;96306.16;5096494;28;19978;-73
2022/06/29 04:02:25;;;;;;;;;;;;;;;15.64;86.31;96311.44;5097529;28;19951;-73
2022/06/29 04:04:52;;;;;;;;;;;;;;;15.62;86.31;96309.09;5097429;28;19999;-73
2022/06/29 04:07:17;;;;;;;;;;;;;;;15.63;86.61;96317.81;5097795;28;19958;-73
2022/06/29 04:09:43;;;;;;;;;;;;;;;15.63;86.67;96321.22;5097593;28;19967;-73
2022/06/29 04:12:09;;;;;;;;;;;;;;;15.66;86.86;96327.84;5097601;28;20053;-73
2022/06/29 04:14:35;;;;;;;;;;;;;;;15.68;87.10;96322.31;5097025;28;20443;-73
2022/06/29 04:17:01;;;;;;;;;;;;;;;15.71;87.25;96319.19;5097187;28;20032;-73
2022/06/29 04:19:27;;;;;;;;;;;;;;;15.74;87.99;96316.06;5097357;28;20048;-73
2022/06/29 04:21:54;;;;;;;;;;;;;;;15.75;88.53;96317.66;5096856;28;20368;-73
2022/06/29 04:24:21;;;;;;;;;;;;;;;15.74;88.69;96319.50;5097000;28;19962;-73
2022/06/29 04:26:46;;;;;;;;;;;;;;;15.76;88.26;96319.25;5097053;28;19968;-73
2022/06/29 04:29:13;;;;;;;;;;;;;;;15.79;88.39;96308.97;5097159;28;19967;-73
2022/06/29 04:31:39;;;;;;;;;;;;;;;15.85;87.55;96311.63;5097012;28;19967;-73
2022/06/29 04:34:05;;;;;;;;;;;;;;;15.92;88.03;96318.31;5096792;28;20418;-73
2022/06/29 04:36:31;;;;;;;;;;;;;;;15.98;87.75;96308.53;5097194;28;19968;-73
2022/06/29 04:38:57;;;;;;;;;;;;;;;16.06;87.77;96308.06;5096715;28;19970;-73
2022/06/29 04:41:23;;;;;;;;;;;;;;;16.15;87.25;96316.34;5096863;28;19996;-73
2022/06/29 04:43:49;;;;;;;;;;;;;;;16.24;87.04;96309.50;5096501;28;19972;-73
2022/06/29 04:46:21;;;;;;;;;;;;;;;16.35;86.79;96311.13;5096749;28;19970;-73
2022/06/29 04:48:48;;;;;;;;;;;;;;;16.44;87.23;96314.88;5096555;28;20427;-73
2022/06/29 04:51:15;;;;;;;;;;;;;;;16.53;86.31;96319.69;5096668;28;19970;-73
2022/06/29 04:53:45;;;;;;;;;;;;;;;16.61;86.16;96319.19;5096912;28;20352;-73
2022/06/29 04:56:11;;;;;;;;;;;;;;;16.66;85.74;96311.25;5096544;28;19964;-73
2022/06/29 04:58:37;;;;;;;;;;;;;;;16.72;85.55;96315.50;5095388;28;19988;-73
2022/06/29 05:01:03;;;;;;;;;;;;;;;16.81;85.70;96313.19;5096569;28;20444;-73
2022/06/29 05:03:29;;;;;;;;;;;;;;;16.90;85.32;96316.91;5096563;28;20028;-73
2022/06/29 05:05:55;;;;;;;;;;;;;;;16.95;85.29;96319.59;5096208;28;20010;-73
2022/06/29 05:08:21;;;;;;;;;;;;;;;17.00;85.41;96318.78;5096415;28;19991;-73
2022/06/29 05:10:46;;;;;;;;;;;;;;;17.15;85.65;96310.06;5095827;28;19995;-73
2022/06/29 05:13:12;;;;;;;;;;;;;;;17.36;85.68;96313.53;5094898;28;20425;-73
2022/06/29 05:15:38;;;;;;;;;;;;;;;17.51;83.48;96302.94;5096220;28;20461;-73
2022/06/29 05:18:04;;;;;;;;;;;;;;;17.59;83.37;96304.25;5096063;28;20039;-73
2022/06/29 05:20:30;;;;;;;;;;;;;;;17.65;83.42;96300.56;5095851;28;19976;-73
2022/06/29 05:22:56;;;;;;;;;;;;;;;17.84;83.57;96300.81;5096563;28;20453;-73
2022/06/29 05:25:23;;;;;;;;;;;;;;;18.13;83.11;96300.25;5094685;28;20320;-73
2022/06/29 05:27:48;;;;;;;;;;;;;;;18.41;81.49;96296.97;5095949;28;19962;-73
2022/06/29 05:30:14;;;;;;;;;;;;;;;18.63;80.24;96295.81;5095884;28;19980;-73
2022/06/29 05:32:41;;;;;;;;;;;;;;;18.76;79.75;96299.75;5095888;28;19970;-73
2022/06/29 05:35:07;;;;;;;;;;;;;;;18.83;78.22;96301.03;5096000;28;19972;-73
2022/06/29 05:37:33;;;;;;;;;;;;;;;18.90;78.43;96308.75;5095693;28;19963;-74
2022/06/29 05:40:00;;;;;;;;;;;;;;;19.02;78.32;96300.41;5096073;28;20005;-73
2022/06/29 05:42:26;;;;;;;;;;;;;;;19.13;78.18;96298.47;5095926;28;19973;-73
2022/06/29 05:44:52;;;;;;;;;;;;;;;19.13;77.01;96296.66;5095280;28;19971;-73
2022/06/29 05:47:17;;;;;;;;;;;;;;;19.07;77.83;96305.72;5095512;28;19981;-73
2022/06/29 05:49:43;;;;;;;;;;;;;;;19.16;77.32;96293.41;5095586;28;19964;-74
2022/06/29 05:52:09;;;;;;;;;;;;;;;19.31;77.81;96294.38;5082718;28;19967;-73
2022/06/29 05:54:35;;;;;;;;;;;;;;;19.50;76.83;96295.28;5095415;28;19979;-73
2022/06/29 05:57:01;;;;;;;;;;;;;;;19.68;76.58;96299.16;5095392;28;20062;-73
2022/06/29 05:59:27;;;;;;;;;;;;;;;19.88;75.67;96292.84;5093944;28;19973;-73
2022/06/29 06:01:53;;;;;;;;;;;;;;;20.16;74.20;96283.28;5095497;28;19991;-73
2022/06/29 06:04:19;;;;;;;;;;;;;;;20.41;74.30;96292.84;5095127;28;19966;-73
2022/06/29 06:06:45;;;;;;;;;;;;;;;20.67;72.81;96282.69;5095614;28;19971;-73
2022/06/29 06:09:11;;;;;;;;;;;;;;;20.84;72.31;96284.06;5094949;28;19960;-73
2022/06/29 06:11:37;;;;;;;;;;;;;;;20.90;71.38;96285.59;5095267;28;19973;-73
2022/06/29 06:14:03;;;;;;;;;;;;;;;20.90;71.86;96290.13;5095094;28;19967;-73
2022/06/29 06:16:29;;;;;;;;;;;;;;;20.90;70.60;96288.25;5095166;28;20332;-73
2022/06/29 06:18:54;;;;;;;;;;;;;;;20.92;70.88;96293.31;5094905;28;20460;-73
2022/06/29 06:21:21;;;;;;;;;;;;;;;20.90;70.89;96293.59;5093899;28;20066;-73
2022/06/29 06:23:47;;;;;;;;;;;;;;;20.90;69.91;96282.13;5094791;28;20294;-73
2022/06/29 06:26:14;;;;;;;;;;;;;;;21.01;71.22;96289.69;5094829;28;19962;-73
2022/06/29 06:28:40;;;;;;;;;;;;;;;21.09;69.65;96280.25;5094612;28;19987;-73
2022/06/29 06:31:07;;;;;;;;;;;;;;;21.12;69.70;96287.66;5094515;28;19980;-73
2022/06/29 06:33:33;;;;;;;;;;;;;;;21.20;71.02;96300.34;5095088;28;20332;-73
2022/06/29 06:35:59;;;;;;;;;;;;;;;21.43;70.22;96295.25;5094509;28;20007;-73
2022/06/29 06:38:25;;;;;;;;;;;;;;;21.71;69.29;96280.09;5094660;28;20373;-73
2022/06/29 06:43:35;;;;;;;;;;;;;;;22.05;65.91;96255.75;5094716;28;19965;-73
2022/06/29 06:46:01;;;;;;;;;;;;;;;22.19;67.56;96269.06;5094313;28;19983;-73
2022/06/29 06:48:27;;;;;;;;;;;;;;;22.26;66.23;96266.06;5094350;28;19969;-73
2022/06/29 06:50:53;;;;;;;;;;;;;;;22.37;65.64;96254.06;5094461;28;19968;-73
2022/06/29 06:53:19;;;;;;;;;;;;;;;22.53;67.11;96272.47;5094405;28;20303;-74
2022/06/29 06:55:45;;;;;;;;;;;;;;;22.69;65.69;96255.00;5094372;28;19967;-73
2022/06/29 06:58:11;;;;;;;;;;;;;;;22.86;66.42;96271.22;5094340;28;20065;-74
2022/06/29 07:00:37;;;;;;;;;;;;;;;22.93;66.15;96267.34;5094188;28;19984;-73
2022/06/29 07:03:03;;;;;;;;;;;;;;;22.92;65.05;96261.19;5094113;28;20345;-73
2022/06/29 07:05:49;;;;;;;;;;;;;;;22.82;65.17;96264.09;5086036;28;19968;-73
2022/06/29 07:08:14;;;;;;;;;;;;;;;22.76;64.05;96251.94;5094076;28;19993;-73
2022/06/29 07:10:40;;;;;;;;;;;;;;;22.81;65.23;96265.19;5094128;28;19974;-73
2022/06/29 07:13:06;;;;;;;;;;;;;;;22.93;64.73;96264.66;5093886;28;19973;-73
2022/06/29 07:15:32;;;;;;;;;;;;;;;23.06;63.13;96253.19;5094169;28;19993;-73
2022/06/29 07:17:58;;;;;;;;;;;;;;;23.23;64.38;96265.91;5093967;28;20015;-73
2022/06/29 07:20:28;;;;;;;;;;;;;;;23.45;64.24;96271.22;5093671;28;19985;-74
2022/06/29 07:22:54;;;;;;;;;;;;;;;23.64;63.85;96268.34;5093303;28;19963;-74
2022/06/29 07:25:20;;;;;;;;;;;;;;;23.85;62.01;96241.88;5093748;28;19979;-74
2022/06/29 07:27:46;;;;;;;;;;;;;;;24.01;62.55;96242.25;5093771;28;19971;-73
2022/06/29 07:30:12;;;;;;;;;;;;;;;24.14;60.82;96227.19;5093586;28;20006;-73
2022/06/29 07:32:41;;;;;;;;;;;;;;;23.95;60.37;96224.75;5093918;28;20420;-73
2022/06/29 07:35:07;;;;;;;;;;;;;;;23.92;62.11;96257.50;5093519;28;20339;-73
2022/06/29 07:37:33;;;;;;;;;;;;;;;23.96;61.71;96247.75;5093947;28;19970;-74
2022/06/29 07:39:59;;;;;;;;;;;;;;;24.10;61.88;96253.78;5093594;28;20017;-73
2022/06/29 07:42:25;;;;;;;;;;;;;;;24.14;61.00;96235.22;5093675;28;19968;-73
2022/06/29 07:44:51;;;;;;;;;;;;;;;24.06;61.35;96252.03;5093316;28;19956;-73
2022/06/29 07:47:16;;;;;;;;;;;;;;;24.11;60.75;96244.66;5092719;28;20065;-73
2022/06/29 07:49:42;;;;;;;;;;;;;;;24.06;61.46;96255.50;5093717;28;19965;-73
2022/06/29 07:52:08;;;;;;;;;;;;;;;24.02;61.45;96248.41;5093475;28;20431;-73
2022/06/29 07:54:34;;;;;;;;;;;;;;;24.10;61.49;96258.38;5093682;28;20392;-73
2022/06/29 07:57:00;;;;;;;;;;;;;;;24.24;60.98;96244.88;5093584;28;20031;-74
2022/06/29 07:59:26;;;;;;;;;;;;;;;24.39;61.76;96252.47;5093507;28;20041;-73
2022/06/29 08:01:52;;;;;;;;;;;;;;;24.50;60.43;96234.22;5093239;28;20043;-74
2022/06/29 08:04:17;;;;;;;;;;;;;;;24.48;60.85;96233.72;5093453;28;19962;-74
2022/06/29 08:06:43;;;;;;;;;;;;;;;24.47;60.79;96229.47;5093559;28;19966;-74
2022/06/29 08:09:09;;;;;;;;;;;;;;;24.48;60.30;96231.84;5093437;28;19961;-73
2022/06/29 08:11:35;;;;;;;;;;;;;;;24.48;59.46;96229.16;5093453;28;19987;-74
2022/06/29 08:14:01;;;;;;;;;;;;;;;24.51;59.37;96222.41;5081780;28;19965;-73
2022/06/29 08:16:27;;;;;;;;;;;;;;;24.67;58.04;96212.00;5093646;28;19990;-73
2022/06/29 08:18:53;;;;;;;;;;;;;;;24.76;58.57;96204.78;5093529;28;20070;-74
2022/06/29 08:21:19;;;;;;;;;;;;;;;24.89;60.78;96216.44;5093305;28;19962;-74
2022/06/29 08:23:45;;;;;;;;;;;;;;;24.76;55.20;96171.78;5093457;28;19971;-74
2022/06/29 08:26:11;;;;;;;;;;;;;;;24.68;55.51;96176.84;5093733;28;20003;-73
2022/06/29 08:28:36;;;;;;;;;;;;;;;24.85;59.71;96223.56;5093415;28;19963;-73
2022/06/29 08:31:02;;;;;;;;;;;;;;;25.10;56.97;96193.22;5093175;28;19976;-74
2022/06/29 08:33:28;;;;;;;;;;;;;;;25.14;54.84;96168.47;5095854;28;20470;-74
2022/06/29 08:35:54;;;;;;;;;;;;;;;24.91;57.55;96192.78;5096821;28;20362;-74
2022/06/29 08:38:20;;;;;;;;;;;;;;;24.54;57.43;96197.66;5097243;28;19980;-73
2022/06/29 08:40:47;;;;;;;;;;;;;;;24.24;58.53;96212.72;5096798;28;19982;-73
2022/06/29 08:43:14;;;;;;;;;;;;;;;23.98;58.90;96228.69;5096797;28;20321;-74
2022/06/29 08:45:44;;;;;;;;;;;;;;;23.77;59.61;96229.25;5083291;28;19957;-73
2022/06/29 08:48:10;;;;;;;;;;;;;;;23.66;60.50;96236.69;5096545;28;19965;-74
2022/06/29 08:50:37;;;;;;;;;;;;;;;23.52;60.43;96230.66;5096774;28;19968;-73
2022/06/29 08:53:05;;;;;;;;;;;;;;;23.37;59.48;96226.50;5096883;28;19958;-74
2022/06/29 08:55:32;;;;;;;;;;;;;;;23.27;61.11;96238.22;5096431;28;20311;-74
2022/06/29 08:57:57;;;;;;;;;;;;;;;23.27;63.15;96264.97;5096466;28;20296;-73
2022/06/29 09:00:24;;;;;;;;;;;;;;;23.39;62.53;96261.75;5096308;28;19994;-73
2022/06/29 09:02:50;;;;;;;;;;;;;;;23.62;63.77;96265.22;5096537;28;19974;-74
2022/06/29 09:05:17;;;;;;;;;;;;;;;23.78;60.08;96224.69;5096706;28;19970;-73
2022/06/29 09:07:42;;;;;;;;;;;;;;;;;;5096252;28;19969;-73
2022/06/29 09:10:16;;;;;;;;;;;;;;;23.94;61.09;96236.56;5096422;28;19956;-73
2022/06/29 09:12:47;;;;;;;;;;;;;;;24.25;58.89;96208.91;5096188;28;19968;-73
2022/06/29 09:15:12;;;;;;;;;;;;;;;24.36;58.20;96196.81;5095929;28;19990;-73
2022/06/29 09:17:39;;;;;;;;;;;;;;;24.42;54.56;96160.72;5096402;28;20076;-74
2022/06/29 09:20:06;;;;;;;;;;;;;;;24.45;59.53;96207.56;5096401;28;19967;-74
2022/06/29 09:22:32;;;;;;;;;;;;;;;24.63;60.30;96217.22;5096226;28;19980;-73
2022/06/29 09:24:58;;;;;;;;;;;;;;;24.87;56.49;96183.78;5095819;28;20343;-73
2022/06/29 09:27:24;;;;;;;;;;;;;;;24.78;57.32;96191.03;5095900;28;20001;-74
2022/06/29 09:29:50;;;;;;;;;;;;;;;24.64;55.98;96173.22;5095628;28;20007;-74
2022/06/29 09:32:17;;;;;;;;;;;;;;;24.45;56.59;96194.16;5095883;28;19968;-74
2022/06/29 09:34:44;;;;;;;;;;;;;;;24.26;58.32;96210.50;5095911;28;19972;-73
2022/06/29 09:37:19;;;;;;;;;;;;;;;24.15;60.42;96231.44;5095825;28;19960;-74
2022/06/29 09:39:45;;;;;;;;;;;;;;;24.09;60.29;96230.00;5096087;28;19963;-74
2022/06/29 09:42:12;;;;;;;;;;;;;;;24.08;61.45;96239.91;5095615;28;19968;-74
2022/06/29 09:44:39;;;;;;;;;;;;;;;24.09;60.53;96232.69;5095282;28;19966;-74
2022/06/29 09:47:08;;;;;;;;;;;;;;;24.09;61.11;96241.50;5095450;28;19967;-73
2022/06/29 09:49:35;;;;;;;;;;;;;;;24.09;61.84;96248.75;5095417;28;20335;-74
2022/06/29 09:52:03;;;;;;;;;;;;;;;24.07;62.13;96253.63;5095753;28;19959;-74
2022/06/29 09:54:36;;;;;;;;;;;;;;;24.05;61.68;96243.22;5095662;28;19967;-74
2022/06/29 09:57:03;;;;;;;;;;;;;;;24.02;60.43;96235.81;5095177;28;19957;-74
2022/06/29 10:02:34;;;;;;;;;;;;;;;23.98;61.20;96240.22;5095350;28;19994;-74
2022/06/29 10:05:12;;;;;;;;;;;;;;;23.99;60.98;96238.31;5095122;28;19962;-73
2022/06/29 10:07:44;;;;;;;;;;;;;;;24.01;61.60;96244.94;5095382;28;19969;-73
2022/06/29 10:10:12;;;;;;;;;;;;;;;24.04;61.09;96240.84;5095273;28;19965;-73
2022/06/29 10:15:27;;;;;;;;;;;;;;;24.00;61.11;96238.03;5095604;28;19984;-73
2022/06/29 10:17:58;;;;;;;;;;;;;;;23.97;61.65;96243.19;5095079;28;19955;-74
2022/06/29 10:20:24;;;;;;;;;;;;;;;23.97;61.55;96245.88;5095162;28;19965;-73
2022/06/29 10:22:50;;;;;;;;;;;;;;;23.96;60.59;96238.91;5095073;28;20487;-73
2022/06/29 10:25:16;;;;;;;;;;;;;;;23.96;60.75;96234.38;5094906;28;20318;-73
2022/06/29 10:28:00;;;;;;;;;;;;;;;23.94;60.68;96233.91;5095131;28;20005;-74
2022/06/29 10:30:28;;;;;;;;;;;;;;;23.96;60.90;96237.06;5084924;28;19956;-73
2022/06/29 10:33:15;;;;;;;;;;;;;;;23.99;60.66;96235.63;5094078;28;19961;-73
2022/06/29 10:36:01;;;;;;;;;;;;;;;24.03;59.57;96220.53;5094474;28;20324;-74
2022/06/29 10:38:27;;;;;;;;;;;;;;;24.08;60.94;96233.78;5093429;28;19969;-74
2022/06/29 10:41:06;;;;;;;;;;;;;;;24.14;61.41;96237.13;5094645;28;20465;-73
2022/06/29 10:43:32;;;;;;;;;;;;;;;24.22;61.17;96231.00;5094613;28;19982;-73
2022/06/29 10:45:58;;;;;;;;;;;;;;;24.23;57.87;96193.19;5094734;28;19961;-74
2022/06/29 10:48:25;;;;;;;;;;;;;;;24.20;59.75;96217.13;5094443;28;20409;-74
2022/06/29 10:50:51;;;;;;;;;;;;;;;24.22;59.47;96214.91;5094627;28;19963;-73
2022/06/29 10:53:18;;;;;;;;;;;;;;;24.23;60.04;96232.56;5094148;28;19971;-73
2022/06/29 10:55:48;;;;;;;;;;;;;;;24.21;60.44;96229.41;5094491;28;19958;-74
2022/06/29 10:58:14;;;;;;;;;;;;;;;24.16;59.85;96218.84;5094932;28;19957;-73
2022/06/29 11:00:40;;;;;;;;;;;;;;;24.14;59.86;96218.34;5094072;28;19962;-73
2022/06/29 11:03:17;;;;;;;;;;;;;;;24.11;60.29;96219.78;5094241;28;19963;-73
2022/06/29 11:14:01;;;;;;;;;;;;;;;24.29;59.97;96212.56;5082690;28;19959;-74
2022/06/29 11:16:29;;;;;;;;;;;;;;;24.34;60.81;96225.81;5094192;28;19989;-74
2022/06/29 11:19:34;;;;;;;;;;;;;;;24.44;60.60;96217.50;5081140;28;19974;-73
2022/06/29 11:22:10;;;;;;;;;;;;;;;24.52;60.13;96214.03;5092765;28;20423;-73
2022/06/29 11:25:09;;;;;;;;;;;;;;;24.54;59.25;96205.69;5093689;28;19980;-74
2022/06/29 11:27:36;;;;;;;;;;;;;;;24.56;59.36;96205.38;5067352;28;19961;-74
2022/06/29 11:30:03;;;;;;;;;;;;;;;24.52;58.88;96202.53;5093942;28;19958;-74
2022/06/29 11:32:33;;;;;;;;;;;;;;;24.46;58.53;96195.72;5093286;28;20423;-74
2022/06/29 11:34:59;;;;;;;;;;;;;;;24.46;59.76;96207.25;5093622;28;20050;-74
2022/06/29 11:37:27;;;;;;;;;;;;;;;24.49;59.15;96201.28;5093633;28;19961;-74
2022/06/29 11:39:53;;;;;;;;;;;;;;;24.58;60.01;96208.53;5093774;28;19979;-74
2022/06/29 11:45:14;;;;;;;;;;;;;;;24.66;57.10;96165.66;5093484;28;19969;-74
2022/06/29 11:47:53;;;;;;;;;;;;;;;24.68;58.04;96178.75;5093013;28;19957;-74
2022/06/29 11:50:19;;;;;;;;;;;;;;;24.73;58.33;96183.16;5093632;28;19960;-74
2022/06/29 11:52:47;;;;;;;;;;;;;;;24.74;58.60;96190.09;5093430;28;20323;-74
2022/06/29 11:55:13;;;;;;;;;;;;;;;24.89;57.44;96170.84;5093562;28;19957;-73
2022/06/29 11:57:39;;;;;;;;;;;;;;;25.22;59.03;96181.91;5093580;28;20057;-74
2022/06/29 12:00:06;;;;;;;;;;;;;;;25.41;57.60;96176.16;5093603;28;19963;-74
2022/06/29 12:02:35;;;;;;;;;;;;;;;25.48;57.33;96172.97;5093529;28;19972;-73
2022/06/29 12:05:02;;;;;;;;;;;;;;;25.37;55.31;96136.88;5092941;28;19954;-74
2022/06/29 12:07:31;;;;;;;;;;;;;;;25.15;56.00;96153.94;5094542;28;19960;-74
2022/06/29 12:09:58;;;;;;;;;;;;;;;25.10;58.32;96181.72;5097425;28;20348;-74
2022/06/29 12:12:24;;;;;;;;;;;;;;;25.29;59.38;96187.56;5097485;28;19965;-74
2022/06/29 12:14:51;;;;;;;;;;;;;;;25.58;54.80;96136.94;5095775;28;20341;-74
2022/06/29 12:17:17;;;;;;;;;;;;;;;25.69;56.83;96156.97;5097405;28;19967;-74
2022/06/29 12:19:44;;;;;;;;;;;;;;;25.90;56.22;96149.78;5096958;28;20440;-74
2022/06/29 12:22:10;;;;;;;;;;;;;;;26.27;57.72;96168.06;5097012;28;19970;-74
2022/06/29 12:24:36;;;;;;;;;;;;;;;26.60;55.41;96137.81;5097187;28;20313;-74
2022/06/29 12:27:02;;;;;;;;;;;;;;;26.85;52.24;96101.81;5096809;28;19953;-75
2022/06/29 12:29:28;;;;;;;;;;;;;;;27.02;51.44;96095.47;5097321;28;19962;-74
2022/06/29 12:31:57;;;;;;;;;;;;;;;27.15;51.40;96098.97;5097006;28;19972;-74
2022/06/29 12:34:23;;;;;;;;;;;;;;;27.30;52.27;96106.47;5096899;28;19960;-74
2022/06/29 12:36:50;;;;;;;;;;;;;;;27.57;51.96;96104.22;5096786;28;20013;-74
2022/06/29 12:39:16;;;;;;;;;;;;;;;27.69;49.33;96060.34;5096599;28;19958;-74
2022/06/29 12:41:42;;;;;;;;;;;;;;;27.76;47.51;96047.09;5095583;28;20384;-74
2022/06/29 12:44:09;;;;;;;;;;;;;;;27.87;51.11;96091.34;5096586;28;19965;-74
2022/06/29 12:46:37;;;;;;;;;;;;;;;27.94;49.54;96070.00;5097138;28;19971;-74
2022/06/29 12:49:03;;;;;;;;;;;;;;;27.96;50.07;96085.06;5096747;28;19966;-74
2022/06/29 12:51:31;;;;;;;;;;;;;;;28.02;49.68;96075.59;5095871;28;19965;-74
2022/06/29 12:53:57;;;;;;;;;;;;;;;28.20;52.22;96101.19;5096687;28;19958;-74
2022/06/29 12:56:23;;;;;;;;;;;;;;;28.33;49.83;96056.88;5096452;28;19957;-74
2022/06/29 12:58:49;;;;;;;;;;;;;;;28.38;49.64;96072.03;5096920;28;19967;-74
2022/06/29 13:01:15;;;;;;;;;;;;;;;28.36;48.35;96062.72;5096544;28;19976;-74
2022/06/29 13:03:41;;;;;;;;;;;;;;;28.33;49.61;96089.25;5096363;28;19990;-74
2022/06/29 13:06:07;;;;;;;;;;;;;;;28.30;49.16;96075.63;5096330;28;20358;-74
2022/06/29 13:08:33;;;;;;;;;;;;;;;28.36;50.93;96093.16;5096502;28;19965;-74